• Join FlightAware (Why Join?)
  • Login
  • US Flag 
10:26AM EDT


 

Airport Tracker/Info


-or-


 

Live Flight TrackerFlight Track Log ✈ UAL4553 ✈ 26-Apr-2013 ✈ KGSP - KIAH

Flight Track Log - Related Links

Times and Time Zones

All times are in EDT time to prevent confusion due to time zone crossing. See the UAL4553 flight status page for this flight to view local times or setup timezone preferences in your user account.

Time Position Orientation Groundspeed Altitude Reporting Facility
EDT Latitude Longitude Course Direction KTS MPH feet Rate Location/Type
01:55PM 34.9583 -82.2572 239° Southwest 239 275 4,800  Level Atlanta Center
01:56PM 34.9236 -82.3111 232° Southwest 249 287 6,900 1,920 Climbing Atlanta Center
01:57PM 34.6021 -82.5476 224° Southwest  Level FlightAware Approximate
01:57PM 34.8661 -82.3656 218° Southwest 249 287 8,700  Level Atlanta Center
01:58PM 34.5300 -82.6300 223° Southwest  Level FlightAware Approximate
01:58PM 34.8042 -82.4222 217° Southwest 267 307 10,300  Level Atlanta Center
01:59PM 34.4614 -82.7163 231° Southwest  Level FlightAware Approximate
01:59PM 34.7342 -82.4894 218° Southwest 303 349 11,000  Level Atlanta Center
02:00PM 34.4022 -82.8122 239° Southwest  Level FlightAware Approximate
02:00PM 34.6600 -82.5639 220° Southwest 334 384 12,200  Level Atlanta Center
02:01PM 34.5753 -82.6461 219° Southwest 355 409 13,400 1,200 Climbing Atlanta Center
02:02PM 34.4947 -82.7206 217° Southwest 369 425 14,600 1,200 Climbing Atlanta Center
02:03PM 34.4331 -82.8147 232° Southwest 357 411 15,800 1,380 Climbing Atlanta Center
02:04PM 34.3775 -82.9111 235° Southwest 357 411 17,400 1,260 Climbing Atlanta Center
02:05PM 34.3200 -83.0050 233° Southwest 357 411 18,400 1,080 Climbing Atlanta Center
02:06PM 34.2644 -83.0989 234° Southwest 357 411 19,600 1,200 Climbing Atlanta Center
02:07PM 34.2047 -83.1947 233° Southwest 362 417 20,800 1,200 Climbing Atlanta Center
02:08PM 34.1447 -83.2933 234° Southwest 362 417 22,000 1,080 Climbing Atlanta Center
02:09PM 34.0931 -83.3792 234° Southwest 362 417 23,000 1,080 Climbing Atlanta Center
02:10PM 34.0331 -83.4772 234° Southwest 367 422 24,200 1,200 Climbing Atlanta Center
02:11PM 33.9728 -83.5753 233° Southwest 367 422 25,400 1,140 Climbing Atlanta Center
02:12PM 33.9128 -83.6708 233° Southwest 361 415 26,500 1,020 Climbing Atlanta Center
02:13PM 33.8544 -83.7636 233° Southwest 361 415 27,500 720 Climbing Atlanta Center
02:14PM 33.7878 -83.8714 233° Southwest 367 422 28,000 780 Climbing Atlanta Center
02:15PM 33.7275 -83.9714 234° Southwest 367 422 29,100 1,020 Climbing Atlanta Center
02:16PM 33.6669 -84.0661 232° Southwest 362 417 30,100 960 Climbing Atlanta Center
02:17PM 33.6064 -84.1636 233° Southwest 362 417 31,100 1,020 Climbing Atlanta Center
02:18PM 33.5456 -84.2606 233° Southwest 362 417 32,200 1,020 Climbing Atlanta Center
02:19PM 33.4828 -84.3575 232° Southwest 362 417 33,200 960 Climbing Atlanta Center
02:20PM 33.4242 -84.4569 235° Southwest 367 422 34,200 900 Climbing Atlanta Center
02:21PM 33.3694 -84.5411 232° Southwest 367 422 35,000 900 Climbing Atlanta Center
02:22PM 33.3106 -84.6353 233° Southwest 362 417 36,000 480 Climbing Atlanta Center
02:23PM 33.2517 -84.7294 233° Southwest 362 417 36,000  Level Atlanta Center
02:24PM 33.1886 -84.8306 233° Southwest 367 422 36,000  Level Atlanta Center
02:25PM 33.1231 -84.9317 232° Southwest 383 441 36,000  Level Atlanta Center
02:26PM 33.0492 -85.0475 233° Southwest 397 457 36,000  Level Atlanta Center
02:27PM 32.9856 -85.1508 234° Southwest 397 457 36,000  Level Atlanta Center
02:28PM 32.9200 -85.2514 232° Southwest 389 448 36,000  Level Atlanta Center
02:29PM 32.8522 -85.3544 232° Southwest 389 448 36,000  Level Atlanta Center
02:30PM 32.7842 -85.4569 232° Southwest 389 448 36,000  Level Atlanta Center
02:31PM 32.7183 -85.5597 233° Southwest 389 448 36,000  Level Atlanta Center
02:32PM 32.6522 -85.6622 233° Southwest 389 448 36,000  Level Atlanta Center
02:33PM 32.5842 -85.7669 232° Southwest 394 453 36,000  Level Atlanta Center
02:34PM 32.5178 -85.8692 232° Southwest 394 453 36,000  Level Atlanta Center
02:35PM 32.4475 -85.9733 231° Southwest 403 464 36,000  Level Atlanta Center
02:36PM 32.3789 -86.0803 233° Southwest 403 464 36,000  Level Atlanta Center
02:37PM 32.3103 -86.1819 231° Southwest 408 470 36,000  Level Atlanta Center
02:38PM 32.2417 -86.2883 233° Southwest 408 470 36,000  Level Atlanta Center
02:39PM 32.1814 -86.3825 233° Southwest 408 470 36,000  Level Atlanta Center
02:40PM 32.1086 -86.4883 231° Southwest 402 463 36,000  Level Atlanta Center
02:41PM 32.0356 -86.5869 229° Southwest 397 457 36,000  Level Atlanta Center
02:42PM 31.9667 -86.6878 231° Southwest 397 457 36,000  Level Atlanta Center
02:43PM 31.8981 -86.7736 227° Southwest 409 471 36,000  Level Atlanta Center
02:45PM 31.7600 -86.9583 229° Southwest 393 452 36,000  Level Houston Center
02:46PM 31.6889 -87.0567 230° Southwest 394 453 36,000  Level Houston Center
02:47PM 31.6172 -87.1544 229° Southwest 395 455 36,000  Level Houston Center
02:48PM 31.5461 -87.2525 230° Southwest 395 455 36,000  Level Houston Center
02:49PM 31.4608 -87.3703 230° Southwest 396 456 36,000  Level Houston Center
02:50PM 31.3892 -87.4675 229° Southwest 395 455 36,000  Level Houston Center
02:51PM 31.3169 -87.5658 229° Southwest 397 457 36,000  Level Houston Center
02:52PM 31.2442 -87.6642 229° Southwest 399 459 36,000  Level Houston Center
02:53PM 31.1597 -87.7778 229° Southwest 403 464 36,000  Level Houston Center
02:54PM 31.0864 -87.8767 229° Southwest 404 465 36,000  Level Houston Center
02:55PM 31.0119 -87.9764 229° Southwest 407 468 36,000  Level Houston Center
02:56PM 30.9375 -88.0756 229° Southwest 409 471 36,000  Level Houston Center
02:58PM 30.8606 -88.1761 228° Southwest 414 476 36,000  Level Houston Center
02:59PM 30.7708 -88.2961 229° Southwest 410 472 36,000  Level Houston Center
03:00PM 30.7086 -88.4047 236° Southwest 405 466 36,000  Level Houston Center
03:01PM 30.6697 -88.5156 248° West 398 458 36,000  Level Houston Center
03:02PM 30.6294 -88.6367 249° West 400 460 36,000  Level Houston Center
03:03PM 30.5786 -88.7808 248° West 401 461 36,000  Level Houston Center
03:04PM 30.5381 -88.9008 249° West 401 461 36,000  Level Houston Center
03:05PM 30.4936 -89.0289 248° West 403 464 36,000  Level Houston Center
03:06PM 30.4531 -89.1489 249° West 402 463 36,000  Level Houston Center
03:07PM 30.4108 -89.2692 248° West 401 461 36,000  Level Houston Center
03:08PM 30.3694 -89.3903 248° West 404 465 36,000  Level Houston Center
03:09PM 30.3269 -89.5103 248° West 402 463 36,000  Level Houston Center
03:10PM 30.2836 -89.6306 247° West 402 463 36,000  Level Houston Center
03:11PM 30.2372 -89.7533 246° West 410 472 36,000  Level Houston Center
03:12PM 30.1947 -89.8803 249° West 415 478 36,000  Level Houston Center
03:13PM 30.1450 -90.0253 248° West 405 466 36,000  Level Houston Center
03:14PM 30.1028 -90.1453 248° West 403 464 36,000  Level Houston Center
03:15PM 30.0600 -90.2661 248° West 405 466 36,000  Level Houston Center
03:16PM 30.0167 -90.3853 247° West 405 466 36,000  Level Houston Center
03:17PM 29.9733 -90.5056 247° West 406 467 36,000  Level Houston Center
03:18PM 29.9297 -90.6256 247° West 406 467 36,000  Level Houston Center
03:19PM 29.8767 -90.7700 247° West 407 468 36,000  Level Houston Center
03:20PM 29.8347 -90.8914 248° West 408 470 36,000  Level Houston Center
03:21PM 29.7914 -91.0111 247° West 408 470 36,000  Level Houston Center
03:22PM 29.7475 -91.1319 247° West 408 470 36,000  Level Houston Center
03:23PM 29.6989 -91.2489 244° Southwest 408 470 36,000  Level Houston Center
03:24PM 29.6572 -91.3700 248° West 408 470 36,000  Level Houston Center
03:25PM 29.6103 -91.5144 250° West 406 467 36,000  Level Houston Center
03:27PM 29.5922 -91.6403 261° West 401 461 36,000  Level Houston Center
03:28PM 29.5711 -91.7661 259° West 400 460 36,000  Level Houston Center
03:29PM 29.5508 -91.8931 260° West 399 459 36,000  Level Houston Center
03:30PM 29.5303 -92.0161 259° West 399 459 36,000  Level Houston Center
03:31PM 29.5097 -92.1417 259° West 400 460 36,000  Level Houston Center
03:32PM 29.4836 -92.2931 259° West 399 459 36,000  Level Houston Center
03:33PM 29.4625 -92.4158 259° West 399 459 36,000  Level Houston Center
03:34PM 29.4583 -92.5428 268° West 400 460 36,000  Level Houston Center
03:35PM 29.4642 -92.6714 273° West 398 458 36,000 -240 Level Houston Center
03:36PM 29.4700 -92.7956 273° West 396 456 35,500 -1,740 Descending Houston Center
03:38PM 29.4833 -93.0739 273° West 398 458 30,700 -2,220 Descending Houston Center
03:39PM 29.4897 -93.2053 273° West 407 468 28,700 -1,980 Descending Houston Center
03:40PM 29.4953 -93.3408 273° West 420 483 26,700 -1,800 Descending Houston Center
03:41PM 29.5000 -93.4775 272° West 426 490 25,100 -1,500 Descending Houston Center
03:42PM 29.5053 -93.6153 273° West 430 495 23,600 -1,440 Descending Houston Center
03:43PM 29.5114 -93.7508 273° West 424 488 22,100 -1,860 Descending Houston Center
03:44PM 29.5175 -93.9133 273° West 424 488 19,800 -2,280 Descending Houston Center
03:45PM 29.5214 -94.0433 272° West 410 472 17,500 -2,400 Descending Houston Center
03:45PM 29.5228 -94.0847 272° West 405 466 16,700 -2,880 Descending Houston Center
03:46PM 29.5258 -94.1564 273° West 396 456 15,000 -2,220 Descending Houston Center
03:47PM 29.5300 -94.2808 272° West 378 435 13,100 -1,500 Descending Houston Center
03:48PM 29.5511 -94.3886 283° West 321 369 12,000 -1,140 Descending Houston Center
03:49PM 29.5919 -94.4819 297° West 324 373 10,900 -1,140 Descending Houston Center
03:50PM 29.6275 -94.5664 296° West 277 319 9,700 -1,440 Descending Houston Center
03:51PM 29.6575 -94.6369 296° West 274 315 8,100 -1,620 Descending Houston Center
03:51PM 29.6656 -94.6536 299° West 275 316 7,700 -1,620 Descending Houston Center
03:52PM 29.6956 -94.7236 296° West 287 330 6,500 -1,260 Descending Houston Center
03:52PM 29.6997 -94.7353 292° West 283 326 6,400 -480 Descending Houston Center
03:53PM 29.7314 -94.8131 295° West 278 320 6,000 -420 Descending Houston Center
03:53PM 29.7403 -94.8325 298° West 282 325 6,000  Level Houston Center
03:54PM 29.7664 -94.8928 297° West 282 325 6,000  Level Houston Center
03:54PM 29.7753 -94.9131 297° West 283 326 6,000  Level Houston Center
03:55PM 29.8042 -94.9819 296° West 283 326 6,000  Level Houston Center
03:55PM 29.8100 -94.9931 301° West 283 326 6,000  Level Houston Center
03:56PM 29.8367 -95.0600 295° West 275 316 6,000  Level Houston Center
03:57PM 29.8431 -95.0722 301° West 279 321 6,000  Level Houston Center
03:57PM 29.8692 -95.1378 295° West 272 313 6,000  Level Houston Center
03:58PM 29.8825 -95.1656 299° West 273 314 6,000  Level Houston Center
03:58PM 29.8983 -95.2258 287° West 270 311 6,000 60 Level Houston Center
03:59PM 29.8983 -95.2475 270° West 270 311 6,100  Climbing Houston Center
03:59PM 29.8983 -95.3175 270° West 262 302 6,000 -60 Descending Houston Center
04:00PM 29.8992 -95.3944 271° West 257 296 6,000  Level Houston Center
04:01PM 29.9003 -95.4125 274° West 258 297 6,000 -1,200 Level Houston Center
04:01PM 29.8994 -95.4667 269° West 205 236 4,800 -1,500 Descending Houston Center
04:02PM 29.9008 -95.4786 278° West 212 244 4,500 -1,260 Descending Houston Center
04:02PM 29.9286 -95.5114 314° West 209 241 3,500 -1,500 Descending Houston Center